createdAt,value
2022-12-06T00:00:40.810Z,20.63
2022-12-06T00:03:46.606Z,20.61
2022-12-06T00:06:52.515Z,20.62
2022-12-06T00:09:55.482Z,20.60
2022-12-06T00:12:58.482Z,20.59
2022-12-06T00:16:03.837Z,20.59
2022-12-06T00:19:08.477Z,20.58
2022-12-06T00:22:11.453Z,20.58
2022-12-06T00:25:14.474Z,20.58
2022-12-06T00:28:17.517Z,20.58
2022-12-06T00:31:22.185Z,20.59
2022-12-06T00:34:26.806Z,20.58
2022-12-06T00:37:29.798Z,20.57
2022-12-06T00:40:32.685Z,20.57
2022-12-06T00:43:36.664Z,20.55
2022-12-06T00:46:40.464Z,20.55
2022-12-06T00:49:44.870Z,20.54
2022-12-06T00:52:47.887Z,20.53
2022-12-06T00:55:52.034Z,20.53
2022-12-06T00:58:55.663Z,20.53
2022-12-06T01:01:58.754Z,20.52
2022-12-06T01:05:03.075Z,20.52
2022-12-06T01:08:06.646Z,20.53
2022-12-06T01:11:10.655Z,20.53
2022-12-06T01:14:13.618Z,20.51
2022-12-06T01:17:16.573Z,20.50
2022-12-06T01:20:20.887Z,20.50
2022-12-06T01:23:23.942Z,20.51
2022-12-06T01:26:28.743Z,20.50
2022-12-06T01:29:31.777Z,20.49
2022-12-06T01:32:34.769Z,20.49
2022-12-06T01:35:41.675Z,20.48
2022-12-06T01:38:44.979Z,20.48
2022-12-06T01:41:47.992Z,20.48
2022-12-06T01:44:54.286Z,20.50
2022-12-06T01:47:57.262Z,20.50
2022-12-06T01:51:02.974Z,20.50
2022-12-06T01:54:10.514Z,20.49
2022-12-06T01:57:17.005Z,20.49
2022-12-06T02:00:20.821Z,20.48
2022-12-06T02:03:27.051Z,20.49
2022-12-06T02:06:33.410Z,20.49
2022-12-06T02:09:37.954Z,20.47
2022-12-06T02:12:40.881Z,20.47
2022-12-06T02:15:57.477Z,20.47
2022-12-06T02:19:09.576Z,20.47
2022-12-06T02:22:20.816Z,20.48
2022-12-06T02:25:50.990Z,20.49
2022-12-06T02:29:24.451Z,20.49
2022-12-06T02:32:33.501Z,20.49
2022-12-06T02:35:41.414Z,20.48
2022-12-06T02:38:48.189Z,20.47
2022-12-06T02:41:57.368Z,20.47
2022-12-06T02:45:04.794Z,20.47
2022-12-06T02:48:10.962Z,20.46
2022-12-06T02:51:16.273Z,20.45
2022-12-06T02:54:20.097Z,20.45
2022-12-06T02:57:34.638Z,20.45
2022-12-06T03:00:40.374Z,20.46
2022-12-06T03:03:52.622Z,20.47
2022-12-06T03:07:14.038Z,20.47
2022-12-06T03:10:30.445Z,20.47
2022-12-06T03:13:40.721Z,20.47
2022-12-06T03:16:49.334Z,20.46
2022-12-06T03:19:59.597Z,20.46
2022-12-06T03:23:07.103Z,20.45
2022-12-06T03:26:14.467Z,20.45
2022-12-06T03:29:20.890Z,20.44
2022-12-06T03:32:27.104Z,20.44
2022-12-06T03:35:35.302Z,20.45
2022-12-06T03:38:45.929Z,20.46
2022-12-06T03:41:54.523Z,20.47
2022-12-06T03:44:57.842Z,20.48
2022-12-06T03:48:06.018Z,20.50
2022-12-06T03:51:15.494Z,20.51
2022-12-06T03:54:18.887Z,20.52
2022-12-06T03:57:21.924Z,20.52
2022-12-06T04:00:24.993Z,20.53
2022-12-06T04:03:27.925Z,20.55
2022-12-06T04:06:32.497Z,20.54
2022-12-06T04:09:56.230Z,20.53
2022-12-06T04:13:02.352Z,20.52
2022-12-06T04:16:25.704Z,20.52
2022-12-06T04:19:27.750Z,20.51
2022-12-06T04:22:49.543Z,20.52
2022-12-06T04:25:52.527Z,20.51
2022-12-06T04:29:13.422Z,20.50
2022-12-06T04:32:33.643Z,20.49
2022-12-06T04:35:53.706Z,20.47
2022-12-06T04:38:58.208Z,20.47
2022-12-06T04:42:19.074Z,20.46
2022-12-06T04:45:21.992Z,20.45
2022-12-06T04:48:25.037Z,20.43
2022-12-06T04:51:28.414Z,20.44
2022-12-06T04:54:32.965Z,20.44
2022-12-06T04:57:36.011Z,20.44
2022-12-06T05:00:43.568Z,20.43
2022-12-06T05:03:46.670Z,20.43
2022-12-06T05:06:49.782Z,20.41
2022-12-06T05:09:54.074Z,20.40
2022-12-06T05:12:57.154Z,20.40
2022-12-06T05:16:02.197Z,20.39
2022-12-06T05:19:05.278Z,20.40
2022-12-06T05:22:08.226Z,20.39
2022-12-06T05:25:12.708Z,20.39
2022-12-06T05:28:15.637Z,20.38
2022-12-06T05:31:19.619Z,20.39
2022-12-06T05:34:22.690Z,20.40
2022-12-06T05:37:25.640Z,20.42
2022-12-06T05:40:29.995Z,20.44
2022-12-06T05:43:33.325Z,20.45
2022-12-06T05:46:36.255Z,20.47
2022-12-06T05:49:39.214Z,20.49
2022-12-06T05:52:42.187Z,20.52
2022-12-06T05:55:46.722Z,20.53
2022-12-06T05:58:49.710Z,20.55
2022-12-06T06:01:52.781Z,20.56
2022-12-06T06:04:55.745Z,20.55
2022-12-06T06:07:59.206Z,20.55
2022-12-06T06:11:03.721Z,20.54
2022-12-06T06:14:06.833Z,20.55
2022-12-06T06:17:10.268Z,20.52
2022-12-06T06:20:14.082Z,20.52
2022-12-06T06:23:17.118Z,20.51
2022-12-06T06:26:22.073Z,20.50
2022-12-06T06:29:25.226Z,20.49
2022-12-06T06:32:28.183Z,20.47
2022-12-06T06:35:31.135Z,20.46
2022-12-06T06:38:34.249Z,20.45
2022-12-06T06:41:38.987Z,20.44
2022-12-06T06:44:41.983Z,20.45
2022-12-06T06:47:45.011Z,20.43
2022-12-06T06:50:52.646Z,20.44
2022-12-06T06:53:58.698Z,20.44
2022-12-06T06:57:03.464Z,20.42
2022-12-06T07:00:08.228Z,20.43
2022-12-06T07:03:15.283Z,20.41
2022-12-06T07:06:18.735Z,20.41
2022-12-06T07:09:21.774Z,20.40
2022-12-06T07:12:26.094Z,20.40
2022-12-06T07:15:29.108Z,20.38
2022-12-06T07:18:32.126Z,20.38
2022-12-06T07:21:35.091Z,20.38
2022-12-06T07:24:42.111Z,20.38
2022-12-06T07:27:48.030Z,20.39
2022-12-06T07:30:51.131Z,20.40
2022-12-06T07:33:55.873Z,20.43
2022-12-06T07:36:58.841Z,20.44
2022-12-06T07:40:02.216Z,20.45
2022-12-06T07:43:23.919Z,20.47
2022-12-06T07:46:26.878Z,20.51
2022-12-06T07:49:30.530Z,20.54
2022-12-06T07:52:34.386Z,20.57
2022-12-06T07:55:37.450Z,20.58
2022-12-06T07:58:42.447Z,20.59
2022-12-06T08:01:45.568Z,20.60
2022-12-06T08:04:48.936Z,20.61
2022-12-06T08:07:52.040Z,20.61
2022-12-06T08:10:55.278Z,20.60
2022-12-06T08:13:59.650Z,20.58
2022-12-06T08:17:02.819Z,20.58
2022-12-06T08:20:07.446Z,20.56
2022-12-06T08:23:10.473Z,20.54
2022-12-06T08:26:16.116Z,20.53
2022-12-06T08:29:20.958Z,20.51
2022-12-06T08:32:24.013Z,20.50
2022-12-06T08:35:27.114Z,20.49
2022-12-06T08:38:30.302Z,20.48
2022-12-06T08:41:59.557Z,20.48
2022-12-06T08:45:04.166Z,20.48
2022-12-06T08:48:07.526Z,20.47
2022-12-06T08:51:10.586Z,20.47
2022-12-06T08:54:15.507Z,20.46
2022-12-06T08:57:18.509Z,20.46
2022-12-06T09:00:23.474Z,20.46
2022-12-06T09:03:27.748Z,20.46
2022-12-06T09:06:31.505Z,20.45
2022-12-06T09:09:34.694Z,20.44
2022-12-06T09:12:37.739Z,20.44
2022-12-06T09:15:42.248Z,20.45
2022-12-06T09:18:45.909Z,20.40
2022-12-06T09:21:48.936Z,20.35
2022-12-06T09:24:51.906Z,20.33
2022-12-06T09:27:55.188Z,20.34
2022-12-06T09:30:59.804Z,20.38
2022-12-06T09:34:02.878Z,20.44
2022-12-06T09:37:10.099Z,20.51
2022-12-06T09:40:21.283Z,20.58
2022-12-06T09:43:40.409Z,20.63
2022-12-06T09:46:58.959Z,20.69
2022-12-06T09:50:13.182Z,20.73
2022-12-06T09:53:23.793Z,20.77
2022-12-06T09:56:31.943Z,20.81
2022-12-06T09:59:44.787Z,20.83
2022-12-06T10:03:22.989Z,20.84
2022-12-06T10:06:34.922Z,20.83
2022-12-06T10:09:46.955Z,20.82
2022-12-06T10:13:00.086Z,20.80
2022-12-06T10:16:13.461Z,20.79
2022-12-06T10:19:27.320Z,20.79
2022-12-06T10:22:42.679Z,20.77
2022-12-06T10:25:58.127Z,20.76
2022-12-06T10:29:09.125Z,20.75
2022-12-06T10:32:18.855Z,20.74
2022-12-06T10:35:37.027Z,20.73
2022-12-06T10:38:45.665Z,20.72
2022-12-06T10:41:56.702Z,20.72
2022-12-06T10:45:25.118Z,20.72
2022-12-06T10:48:34.145Z,20.71
2022-12-06T10:51:44.499Z,20.69
2022-12-06T10:54:58.425Z,20.70
2022-12-06T10:58:12.563Z,20.69
2022-12-06T11:01:20.496Z,20.68
2022-12-06T11:04:26.225Z,20.67
2022-12-06T11:07:36.568Z,20.66
2022-12-06T11:10:45.259Z,20.66
2022-12-06T11:13:52.982Z,20.65
2022-12-06T11:17:00.774Z,20.65
2022-12-06T11:20:11.782Z,20.65
2022-12-06T11:23:22.821Z,20.65
2022-12-06T11:26:36.112Z,20.64
2022-12-06T11:29:39.103Z,20.64
2022-12-06T11:32:42.882Z,20.63
2022-12-06T11:35:47.982Z,20.63
2022-12-06T11:38:51.337Z,20.63
2022-12-06T11:41:57.922Z,20.63
2022-12-06T11:45:07.852Z,20.63
2022-12-06T11:48:16.483Z,20.63
2022-12-06T11:51:21.622Z,20.63
2022-12-06T11:54:30.315Z,20.63
2022-12-06T11:57:42.540Z,20.65
2022-12-06T12:00:58.294Z,20.66
2022-12-06T12:04:21.251Z,20.67
2022-12-06T12:07:26.830Z,20.67
2022-12-06T12:10:34.837Z,20.68
2022-12-06T12:13:45.154Z,20.68
2022-12-06T12:16:51.406Z,20.68
2022-12-06T12:20:00.213Z,20.68
2022-12-06T12:23:06.998Z,20.67
2022-12-06T12:26:14.546Z,20.69
2022-12-06T12:29:20.741Z,20.68
2022-12-06T12:32:23.736Z,20.68
2022-12-06T12:35:28.417Z,20.68
2022-12-06T12:38:38.451Z,20.69
2022-12-06T12:41:44.726Z,20.69
2022-12-06T12:44:49.187Z,20.68
2022-12-06T12:48:00.161Z,20.69
2022-12-06T12:51:05.773Z,20.68
2022-12-06T12:54:23.989Z,20.68
2022-12-06T12:57:27.100Z,20.67
2022-12-06T13:00:36.422Z,20.67
2022-12-06T13:03:51.195Z,20.66
2022-12-06T13:06:59.427Z,20.66
2022-12-06T13:10:06.142Z,20.66
2022-12-06T13:13:16.411Z,20.66
2022-12-06T13:16:28.902Z,20.65
2022-12-06T13:19:35.292Z,20.65
2022-12-06T13:22:45.282Z,20.65
2022-12-06T13:25:55.093Z,20.65
2022-12-06T13:29:02.826Z,20.65
2022-12-06T13:32:15.159Z,20.63
2022-12-06T13:35:24.971Z,20.64
2022-12-06T13:38:32.511Z,20.63
2022-12-06T13:42:13.640Z,20.64
2022-12-06T13:45:43.428Z,20.63
2022-12-06T13:48:52.753Z,20.62
2022-12-06T13:51:55.976Z,20.62
2022-12-06T13:54:59.080Z,20.63
2022-12-06T13:58:40.086Z,20.64
2022-12-06T14:01:44.729Z,20.64
2022-12-06T14:04:49.146Z,20.65
2022-12-06T14:07:58.509Z,20.65
2022-12-06T14:11:15.393Z,20.65
2022-12-06T14:14:20.321Z,20.66
2022-12-06T14:17:53.032Z,20.65
2022-12-06T14:20:52.431Z,20.66
2022-12-06T14:23:55.466Z,20.67
2022-12-06T14:27:05.954Z,20.67
2022-12-06T14:30:23.513Z,20.69
2022-12-06T14:33:28.429Z,20.68
2022-12-06T14:36:35.883Z,20.70
2022-12-06T14:39:38.872Z,20.70
2022-12-06T14:43:02.544Z,20.70
2022-12-06T14:46:07.987Z,20.69
2022-12-06T14:49:32.303Z,20.69
2022-12-06T14:52:36.665Z,20.67
2022-12-06T14:55:54.079Z,20.68
2022-12-06T14:58:59.095Z,20.67
2022-12-06T15:02:02.247Z,20.66
2022-12-06T15:05:05.673Z,20.65
2022-12-06T15:08:34.570Z,20.65
2022-12-06T15:11:57.377Z,20.67
2022-12-06T15:15:00.457Z,20.66
2022-12-06T15:18:13.858Z,20.66
2022-12-06T15:21:18.887Z,20.65
2022-12-06T15:24:25.149Z,20.66
2022-12-06T15:27:28.216Z,20.64
2022-12-06T15:30:31.110Z,20.65
2022-12-06T15:33:34.240Z,20.64
2022-12-06T15:36:37.311Z,20.65
2022-12-06T15:39:42.209Z,20.64
2022-12-06T15:42:45.195Z,20.65
2022-12-06T15:45:48.439Z,20.64
2022-12-06T15:48:52.539Z,20.63
2022-12-06T15:51:55.602Z,20.64
2022-12-06T15:55:00.329Z,20.64
2022-12-06T15:58:03.709Z,20.64
2022-12-06T16:01:12.202Z,20.64
2022-12-06T16:04:17.537Z,20.65
2022-12-06T16:07:20.599Z,20.63
2022-12-06T16:10:42.613Z,20.63
2022-12-06T16:13:48.829Z,20.64
2022-12-06T16:16:51.903Z,20.64
2022-12-06T16:20:12.402Z,20.64
2022-12-06T16:24:04.546Z,20.65
2022-12-06T16:26:59.432Z,20.67
2022-12-06T16:30:02.501Z,20.69
2022-12-06T16:33:07.708Z,20.68
2022-12-06T16:36:13.515Z,20.69
2022-12-06T16:39:16.597Z,20.68
2022-12-06T16:42:20.950Z,20.70
2022-12-06T16:45:24.051Z,20.69
2022-12-06T16:48:27.305Z,20.69
2022-12-06T16:51:32.801Z,20.69
2022-12-06T16:54:35.848Z,20.69
2022-12-06T16:57:40.218Z,20.69
2022-12-06T17:00:43.266Z,20.69
2022-12-06T17:03:49.520Z,20.70
2022-12-06T17:06:52.580Z,20.68
2022-12-06T17:09:55.916Z,20.70
2022-12-06T17:13:00.240Z,20.70
2022-12-06T17:16:03.369Z,20.69
2022-12-06T17:19:08.636Z,20.69
2022-12-06T17:22:12.703Z,20.69
2022-12-06T17:25:17.311Z,20.68
2022-12-06T17:28:21.791Z,20.68
2022-12-06T17:31:24.823Z,20.68
2022-12-06T17:34:27.851Z,20.67
2022-12-06T17:37:30.898Z,20.67
2022-12-06T17:40:34.056Z,20.66
2022-12-06T17:43:37.471Z,20.67
2022-12-06T17:46:41.311Z,20.66
2022-12-06T17:49:44.374Z,20.66
2022-12-06T17:52:48.446Z,20.67
2022-12-06T17:55:51.452Z,20.66
2022-12-06T17:58:57.088Z,20.66
2022-12-06T18:02:17.857Z,20.66
2022-12-06T18:05:21.523Z,20.66
2022-12-06T18:08:24.611Z,20.65
2022-12-06T18:11:28.804Z,20.64
2022-12-06T18:14:33.568Z,20.64
2022-12-06T18:17:37.011Z,20.63
2022-12-06T18:20:41.075Z,20.62
2022-12-06T18:24:05.456Z,20.63
2022-12-06T18:27:07.447Z,20.64
2022-12-06T18:30:12.765Z,20.63
2022-12-06T18:33:19.325Z,20.62
2022-12-06T18:36:24.883Z,20.60
2022-12-06T18:39:28.148Z,20.62
2022-12-06T18:42:31.250Z,20.61
2022-12-06T18:45:35.841Z,20.60
2022-12-06T18:48:40.695Z,20.59
2022-12-06T18:51:43.703Z,20.60
2022-12-06T18:54:46.692Z,20.59
2022-12-06T18:57:49.795Z,20.60
2022-12-06T19:00:54.175Z,20.60
2022-12-06T19:03:59.583Z,20.62
2022-12-06T19:07:02.691Z,20.63
2022-12-06T19:10:06.782Z,20.63
2022-12-06T19:13:09.918Z,20.63
2022-12-06T19:16:14.355Z,20.65
2022-12-06T19:19:19.939Z,20.64
2022-12-06T19:22:22.987Z,20.65
2022-12-06T19:25:26.035Z,20.65
2022-12-06T19:28:29.882Z,20.66
2022-12-06T19:31:34.366Z,20.67
2022-12-06T19:34:37.436Z,20.68
2022-12-06T19:37:40.435Z,20.68
2022-12-06T19:40:43.469Z,20.70
2022-12-06T19:44:03.565Z,20.71
2022-12-06T19:47:07.985Z,20.73
2022-12-06T19:50:11.702Z,20.72
2022-12-06T19:53:14.776Z,20.73
2022-12-06T19:56:20.110Z,20.73
2022-12-06T19:59:23.674Z,20.73
2022-12-06T20:02:28.147Z,20.74
2022-12-06T20:05:31.250Z,20.73
2022-12-06T20:08:34.374Z,20.74
2022-12-06T20:11:56.486Z,20.74
2022-12-06T20:14:59.552Z,20.75
2022-12-06T20:18:03.981Z,20.75
2022-12-06T20:21:07.550Z,20.75
2022-12-06T20:24:11.244Z,20.75
2022-12-06T20:27:14.294Z,20.75
2022-12-06T20:30:17.987Z,20.75
2022-12-06T20:33:22.815Z,20.76
2022-12-06T20:36:26.388Z,20.76
2022-12-06T20:39:29.432Z,20.75
2022-12-06T20:42:33.285Z,20.74
2022-12-06T20:45:36.631Z,20.75
2022-12-06T20:48:41.434Z,20.74
2022-12-06T20:51:49.524Z,20.74
2022-12-06T20:54:55.651Z,20.74
2022-12-06T20:57:59.081Z,20.74
2022-12-06T21:01:02.835Z,20.73
2022-12-06T21:04:08.258Z,20.74
2022-12-06T21:07:11.258Z,20.74
2022-12-06T21:10:14.316Z,20.74
2022-12-06T21:13:17.346Z,20.74
2022-12-06T21:16:23.544Z,20.74
2022-12-06T21:19:28.007Z,20.73
2022-12-06T21:22:31.127Z,20.74
2022-12-06T21:25:37.025Z,20.73
2022-12-06T21:28:40.097Z,20.75
2022-12-06T21:31:43.671Z,20.75
2022-12-06T21:34:48.141Z,20.76
2022-12-06T21:37:51.215Z,20.77
2022-12-06T21:40:57.510Z,20.79
2022-12-06T21:44:04.601Z,20.79
2022-12-06T21:47:07.822Z,20.79
2022-12-06T21:50:13.503Z,20.80
2022-12-06T21:53:17.419Z,20.80
2022-12-06T21:56:22.592Z,20.81
2022-12-06T21:59:26.789Z,20.81
2022-12-06T22:02:29.864Z,20.82
2022-12-06T22:05:34.262Z,20.83
2022-12-06T22:08:38.825Z,20.83
2022-12-06T22:11:41.847Z,20.83
2022-12-06T22:14:44.865Z,20.83
2022-12-06T22:17:47.827Z,20.83
2022-12-06T22:21:00.275Z,20.83
2022-12-06T22:24:03.409Z,20.82
2022-12-06T22:27:06.545Z,20.81
2022-12-06T22:30:10.787Z,20.80
2022-12-06T22:33:13.737Z,20.79
2022-12-06T22:36:19.347Z,20.78
2022-12-06T22:39:22.318Z,20.76
2022-12-06T22:42:25.269Z,20.75
2022-12-06T22:45:28.298Z,20.75
2022-12-06T22:48:31.574Z,20.74
2022-12-06T22:51:38.437Z,20.74
2022-12-06T22:54:41.402Z,20.73
2022-12-06T22:57:44.295Z,20.72
2022-12-06T23:00:47.268Z,20.72
2022-12-06T23:03:51.917Z,20.70
2022-12-06T23:06:56.274Z,20.70
2022-12-06T23:09:59.669Z,20.69
2022-12-06T23:13:02.857Z,20.68
2022-12-06T23:16:10.363Z,20.67
2022-12-06T23:19:13.470Z,20.66
2022-12-06T23:22:17.854Z,20.66
2022-12-06T23:25:20.810Z,20.66
2022-12-06T23:28:24.799Z,20.66
2022-12-06T23:31:29.602Z,20.67
2022-12-06T23:34:32.635Z,20.67
2022-12-06T23:37:36.987Z,20.66
2022-12-06T23:40:39.975Z,20.66
2022-12-06T23:43:43.740Z,20.66
2022-12-06T23:46:46.788Z,20.67
2022-12-06T23:49:49.874Z,20.66
2022-12-06T23:52:54.320Z,20.66
2022-12-06T23:55:59.939Z,20.66
2022-12-06T23:59:05.206Z,20.66
